This is the latest recevied weather packets stored in our database for station/object SP7RCS-11. If no packets are shown the sender has not sent any weather packets the latest 1 day(s).
| Time | Temp. | Humidity | Pressure | Rain* | Wind** | Luminosity | Snow |
|---|---|---|---|---|---|---|---|
| 1778094017 | 26.67° C | 33% | 1000.4 hPa | - | - | - | - |
| 1778087709 | 32.78° C | 25% | 999.5 hPa | - | - | - | - |
| 1778085908 | 32.78° C | 24% | 999.4 hPa | - | - | - | - |
| 1778078701 | 35.56° C | 21% | 998.8 hPa | - | - | - | - |
| 1778067894 | 40° C | 15% | 998.7 hPa | - | - | - | - |
| 1778064287 | 46.67° C | 10% | 999.2 hPa | - | - | - | - |
| 1778063387 | 43.33° C | 11% | 999.3 hPa | - | - | - | - |
| 1778062487 | 39.44° C | 14% | 999.3 hPa | - | - | - | - |
| 1778061587 | 46.11° C | 10% | 999.2 hPa | - | - | - | - |
| 1778058886 | 44.44° C | 12% | 999.6 hPa | - | - | - | - |
| 1778055285 | 42.22° C | 14% | 999.8 hPa | - | - | - | - |
| 1778054385 | 40.56° C | 16% | 1000 hPa | - | - | - | - |
| 1778053485 | 39.44° C | 17% | 1000 hPa | - | - | - | - |
| 1778052584 | 37.78° C | 18% | 1000 hPa | - | - | - | - |
| 1778050814 | 32.22° C | 24% | 1000.2 hPa | - | - | - | - |
| 1778049914 | 27.22° C | 30% | 1000.6 hPa | - | - | - | - |
| 1778049010 | 25.56° C | 32% | 1000.7 hPa | - | - | - | - |
| 1778048110 | 24.44° C | 34% | 1000.9 hPa | - | - | - | - |
| 1778042708 | 17.22° C | 51% | 1001.2 hPa | - | - | - | - |
| 1778040907 | 17.22° C | 51% | 1001.2 hPa | - | - | - | - |
| 1778040007 | 16.11° C | 52% | 1001.3 hPa | - | - | - | - |
| 1778039106 | 16.11° C | 51% | 1001.5 hPa | - | - | - | - |
| 1778038206 | 15° C | 51% | 1001.3 hPa | - | - | - | - |
| 1778037306 | 15° C | 51% | 1001.3 hPa | - | - | - | - |
| 1778036406 | 15° C | 51% | 1001 hPa | - | - | - | - |
* Rain since midnight (hover to see other rain measurements)
** Current wind speed in m/s (hover to see current wind gust speed)